Time;durP1;ratioP1;P1;durP2;ratioP2;P2;SDS_P1;SDS_P2;PMS_P1;PMS_P2;Temp;Humidity;BMP_temperature;BMP_pressure;BME280_temperature;BME280_humidity;BME280_pressure;Samples;Min_cycle;Max_cycle;Signal;HPM_P1;HPM_P2
2021/06/10 00:00:36;;;;;;;21.27;17.02;;;15.30;86.70;;;;;;5081435;28;20041;-55
2021/06/10 00:03:04;;;;;;;23.42;16.65;;;15.30;86.90;;;;;;5071140;28;20112;-54
2021/06/10 00:05:31;;;;;;;23.27;17.90;;;15.20;86.90;;;;;;5064757;28;20051;-52
2021/06/10 00:07:56;;;;;;;23.42;20.42;;;15.10;87.00;;;;;;5064021;28;20547;-55
2021/06/10 00:10:24;;;;;;;23.33;20.27;;;15.10;87.50;;;;;;5070431;28;20052;-55
2021/06/10 00:12:51;;;;;;;23.98;16.90;;;15.10;88.00;;;;;;5069457;28;20045;-53
2021/06/10 00:15:24;;;;;;;22.08;17.73;;;15.00;87.80;;;;;;5051699;28;20049;-54
2021/06/10 00:17:50;;;;;;;18.88;16.20;;;15.00;87.70;;;;;;5068714;28;20052;-56
2021/06/10 00:20:19;;;;;;;17.92;15.85;;;15.00;87.60;;;;;;5052639;28;20056;-53
2021/06/10 00:22:46;;;;;;;18.55;15.73;;;14.90;87.60;;;;;;5070458;28;20040;-54
2021/06/10 00:25:12;;;;;;;18.05;15.70;;;14.90;87.50;;;;;;5070109;28;20412;-53
2021/06/10 00:27:39;;;;;;;20.60;17.30;;;14.80;87.40;;;;;;5069782;28;20051;-52
2021/06/10 00:30:08;;;;;;;20.75;17.20;;;14.80;87.80;;;;;;5069939;28;20133;-53
2021/06/10 00:32:34;;;;;;;21.45;17.35;;;14.80;88.00;;;;;;5070141;28;20087;-53
2021/06/10 00:35:01;;;;;;;22.88;17.67;;;14.80;88.00;;;;;;5069080;28;20036;-52
2021/06/10 00:37:27;;;;;;;21.52;17.10;;;14.80;88.10;;;;;;5072150;28;20072;-52
2021/06/10 00:39:54;;;;;;;21.25;17.75;;;14.80;88.30;;;;;;5067936;28;20064;-53
2021/06/10 00:42:21;;;;;;;20.63;17.10;;;14.70;88.40;;;;;;5069396;28;20041;-55
2021/06/10 00:44:47;;;;;;;20.95;17.20;;;14.70;88.40;;;;;;5070439;28;20047;-55
2021/06/10 00:47:12;;;;;;;18.95;15.98;;;14.70;88.50;;;;;;5073984;28;20044;-55
2021/06/10 00:49:38;;;;;;;20.70;15.77;;;14.70;88.30;;;;;;5061273;28;20044;-55
2021/06/10 00:52:04;;;;;;;20.75;15.15;;;14.60;88.70;;;;;;5073639;28;20048;-52
2021/06/10 00:54:30;;;;;;;21.85;16.17;;;14.60;88.10;;;;;;5076920;28;20446;-53
2021/06/10 00:56:56;;;;;;;20.70;17.40;;;14.50;88.20;;;;;;5082423;28;20101;-55
2021/06/10 00:59:22;;;;;;;26.38;19.42;;;14.50;88.30;;;;;;5072616;28;20045;-54
2021/06/10 01:01:48;;;;;;;24.77;18.73;;;14.50;88.50;;;;;;5082319;28;20484;-55
2021/06/10 01:04:14;;;;;;;22.85;18.38;;;14.50;88.80;;;;;;5091391;28;20071;-54
2021/06/10 01:06:50;;;;;;;21.63;18.55;;;14.50;88.90;;;;;;5081029;28;20325;-53
2021/06/10 01:09:25;;;;;;;19.70;16.05;;;14.50;89.10;;;;;;5074199;28;20041;-56
2021/06/10 01:12:23;;;;;;;16.63;13.38;;;14.40;89.10;;;;;;5075907;28;20131;-54
2021/06/10 01:15:08;;;;;;;23.25;19.15;;;14.40;88.80;;;;;;5071098;28;20566;-51
2021/06/10 01:17:42;;;;;;;22.85;18.67;;;14.40;88.90;;;;;;5073315;28;20041;-52
2021/06/10 01:20:15;;;;;;;29.13;22.05;;;14.40;89.30;;;;;;5073583;28;20073;-53
2021/06/10 01:22:56;;;;;;;28.40;21.58;;;14.30;89.50;;;;;;5072979;28;20036;-54
2021/06/10 01:25:37;;;;;;;30.95;23.02;;;14.40;89.60;;;;;;5074113;28;20055;-55
2021/06/10 01:28:10;;;;;;;30.27;23.02;;;14.40;89.70;;;;;;5072134;28;20138;-54
2021/06/10 01:30:40;;;;;;;30.98;22.80;;;14.40;89.80;;;;;;5068375;28;20051;-55
2021/06/10 01:33:18;;;;;;;25.23;20.92;;;14.40;89.90;;;;;;5079224;28;20506;-53
2021/06/10 01:35:53;;;;;;;27.38;19.70;;;14.40;90.00;;;;;;5072704;28;20064;-54
2021/06/10 01:38:21;;;;;;;25.52;19.38;;;14.40;89.60;;;;;;5087737;28;20093;-54
2021/06/10 01:40:52;;;;;;;24.00;18.88;;;14.30;89.30;;;;;;5081068;28;20090;-52
2021/06/10 01:43:21;;;;;;;26.10;18.58;;;14.30;89.00;;;;;;5047461;28;20055;-55
2021/06/10 01:45:49;;;;;;;24.92;19.17;;;14.30;89.20;;;;;;5063529;28;20044;-55
2021/06/10 01:48:19;;;;;;;28.48;20.63;;;14.30;89.40;;;;;;5062990;28;20389;-55
2021/06/10 01:50:50;;;;;;;28.75;22.35;;;14.30;89.80;;;;;;5080327;28;20102;-53
2021/06/10 01:53:17;;;;;;;27.58;21.02;;;14.20;89.70;;;;;;5084090;28;20113;-55
2021/06/10 01:55:45;;;;;;;24.38;20.15;;;14.20;89.80;;;;;;5082981;28;20043;-55
2021/06/10 01:58:11;;;;;;;24.45;19.83;;;14.20;90.00;;;;;;5073386;28;20043;-52
2021/06/10 02:00:38;;;;;;;27.13;21.90;;;14.20;90.00;;;;;;5068879;28;20077;-55
2021/06/10 02:03:06;;;;;;;28.45;22.90;;;14.20;90.20;;;;;;5080070;28;20057;-55
2021/06/10 02:05:35;;;;;;;27.92;21.55;;;14.20;90.50;;;;;;5081299;28;20045;-55
2021/06/10 02:08:03;;;;;;;29.38;23.60;;;14.10;90.40;;;;;;5071193;28;20064;-55
2021/06/10 02:10:30;;;;;;;27.05;20.15;;;14.10;90.30;;;;;;5071890;28;20051;-56
2021/06/10 02:12:56;;;;;;;21.10;18.08;;;14.10;90.20;;;;;;5054551;28;20143;-55
2021/06/10 02:15:25;;;;;;;26.50;19.70;;;14.00;90.10;;;;;;5054053;28;20056;-53
2021/06/10 02:17:52;;;;;;;21.85;17.08;;;14.00;90.10;;;;;;5054434;28;20044;-56
2021/06/10 02:20:20;;;;;;;23.73;17.67;;;14.00;90.10;;;;;;5069620;28;20043;-55
2021/06/10 02:22:48;;;;;;;26.88;19.65;;;13.90;90.10;;;;;;5032778;28;20037;-55
2021/06/10 02:25:16;;;;;;;27.10;21.27;;;13.90;90.20;;;;;;5060249;28;20045;-55
2021/06/10 02:27:43;;;;;;;28.63;21.38;;;13.90;90.20;;;;;;5067941;28;20044;-56
2021/06/10 02:30:12;;;;;;;29.23;22.20;;;13.90;90.50;;;;;;5065321;28;20044;-55
2021/06/10 02:32:38;;;;;;;31.23;24.20;;;13.80;90.30;;;;;;5074404;28;20044;-53
2021/06/10 02:35:06;;;;;;;32.55;23.95;;;13.80;90.50;;;;;;5070558;28;20051;-52
2021/06/10 02:37:34;;;;;;;29.40;22.42;;;13.80;90.60;;;;;;5068805;28;20485;-54
2021/06/10 02:40:04;;;;;;;26.73;20.95;;;13.80;90.60;;;;;;5085706;28;20082;-54
2021/06/10 02:42:31;;;;;;;26.27;21.00;;;13.70;90.60;;;;;;5075995;28;20463;-54
2021/06/10 02:44:58;;;;;;;29.85;22.95;;;13.70;90.40;;;;;;5071537;28;20177;-53
2021/06/10 02:47:27;;;;;;;30.17;22.73;;;13.70;90.40;;;;;;5077093;28;20552;-54
2021/06/10 02:49:53;;;;;;;33.50;23.35;;;13.70;90.50;;;;;;5072418;28;20058;-53
2021/06/10 02:52:20;;;;;;;31.58;23.80;;;13.70;90.50;;;;;;5068745;28;20056;-56
2021/06/10 02:54:48;;;;;;;28.25;23.27;;;13.70;90.50;;;;;;5074541;28;20052;-55
2021/06/10 02:57:19;;;;;;;24.20;20.17;;;13.70;90.60;;;;;;5070547;28;20040;-54
2021/06/10 02:59:46;;;;;;;27.05;20.05;;;13.60;90.40;;;;;;5075062;28;20040;-55
2021/06/10 03:02:13;;;;;;;21.52;17.38;;;13.60;90.40;;;;;;5078997;28;20041;-54
2021/06/10 03:04:44;;;;;;;19.88;16.77;;;13.60;90.30;;;;;;5059425;28;20058;-55
2021/06/10 03:07:17;;;;;;;24.23;18.38;;;13.60;90.30;;;;;;5071228;28;20470;-56
2021/06/10 03:09:45;;;;;;;23.95;19.50;;;13.60;90.40;;;;;;5071740;28;20122;-55
2021/06/10 03:12:15;;;;;;;28.70;21.27;;;13.60;90.50;;;;;;5056812;28;20048;-54
2021/06/10 03:14:42;;;;;;;25.40;20.55;;;13.60;90.60;;;;;;5083974;28;20555;-53
2021/06/10 03:17:09;;;;;;;30.50;21.77;;;13.60;90.70;;;;;;5086477;28;20036;-54
2021/06/10 03:19:35;;;;;;;28.95;21.80;;;13.60;90.80;;;;;;5072534;28;20063;-54
2021/06/10 03:22:02;;;;;;;27.33;21.35;;;13.50;90.80;;;;;;5062293;28;20048;-54
2021/06/10 03:24:29;;;;;;;26.20;20.73;;;13.50;90.70;;;;;;5036246;28;20059;-54
2021/06/10 03:26:56;;;;;;;24.88;21.05;;;13.60;90.90;;;;;;5069482;28;20082;-55
2021/06/10 03:29:22;;;;;;;25.52;20.88;;;13.50;91.00;;;;;;5069525;28;20048;-55
2021/06/10 03:31:48;;;;;;;28.63;22.35;;;13.50;90.90;;;;;;5069966;28;20036;-55
2021/06/10 03:34:14;;;;;;;17.60;15.50;;;13.50;90.90;;;;;;5070656;28;20044;-55
2021/06/10 03:36:40;;;;;;;24.77;19.85;;;13.50;90.80;;;;;;5068376;28;20066;-53
2021/06/10 03:39:07;;;;;;;28.20;22.38;;;13.50;90.80;;;;;;5053089;28;20153;-55
2021/06/10 03:41:34;;;;;;;29.08;23.08;;;13.60;91.00;;;;;;5084443;28;20052;-51
2021/06/10 03:44:02;;;;;;;30.08;23.27;;;13.50;91.00;;;;;;5052549;28;20804;-55
2021/06/10 03:46:29;;;;;;;31.08;23.30;;;13.50;91.10;;;;;;5070746;28;20112;-52
2021/06/10 03:48:55;;;;;;;30.38;24.92;;;13.50;91.20;;;;;;5069720;28;20035;-50
2021/06/10 03:51:21;;;;;;;30.58;24.08;;;13.60;91.30;;;;;;5064700;28;20423;-52
2021/06/10 03:53:48;;;;;;;34.95;25.83;;;13.50;91.30;;;;;;5072022;28;20094;-49
2021/06/10 03:56:19;;;;;;;34.47;25.50;;;13.50;91.30;;;;;;5060857;28;20052;-52
2021/06/10 03:58:46;;;;;;;31.48;24.35;;;13.50;91.30;;;;;;5060154;28;20091;-54
2021/06/10 04:01:13;;;;;;;29.48;22.73;;;13.60;91.30;;;;;;5047395;28;20098;-53
2021/06/10 04:03:39;;;;;;;27.13;20.98;;;13.50;91.40;;;;;;5057550;28;20040;-56
2021/06/10 04:06:06;;;;;;;28.63;22.63;;;13.50;91.30;;;;;;5069846;28;20044;-55
2021/06/10 04:08:46;;;;;;;30.40;24.48;;;13.50;91.40;;;;;;5068468;28;20049;-54
2021/06/10 04:11:19;;;;;;;32.97;24.85;;;13.60;91.50;;;;;;5060363;28;20051;-55
2021/06/10 04:13:45;;;;;;;29.23;23.60;;;13.50;91.50;;;;;;5059310;28;20072;-55
2021/06/10 04:16:24;;;;;;;29.10;22.75;;;13.50;91.60;;;;;;5069911;28;20044;-53
2021/06/10 04:18:50;;;;;;;28.83;22.80;;;13.40;91.50;;;;;;5065471;28;20105;-55
2021/06/10 04:21:18;;;;;;;30.20;24.13;;;13.40;91.60;;;;;;5074206;28;20048;-56
2021/06/10 04:23:47;;;;;;;35.17;26.33;;;13.40;91.60;;;;;;5074393;28;20040;-54
2021/06/10 04:26:15;;;;;;;34.38;25.92;;;13.50;91.50;;;;;;5070933;28;20040;-55
2021/06/10 04:28:44;;;;;;;32.30;24.95;;;13.50;91.60;;;;;;5074408;28;20070;-52
2021/06/10 04:31:11;;;;;;;32.63;24.75;;;13.50;91.60;;;;;;5070242;28;20036;-54
2021/06/10 04:33:38;;;;;;;31.70;25.65;;;13.50;91.60;;;;;;5066001;28;20048;-54
2021/06/10 04:36:05;;;;;;;32.70;25.58;;;13.60;91.60;;;;;;5068391;28;20044;-53
2021/06/10 04:38:36;;;;;;;35.33;27.98;;;13.60;91.60;;;;;;5073463;28;20392;-54
2021/06/10 04:41:05;;;;;;;38.63;28.20;;;13.70;91.60;;;;;;5074182;28;20040;-54
2021/06/10 04:43:41;;;;;;;37.97;27.83;;;13.80;91.60;;;;;;5053467;28;20059;-55
2021/06/10 04:46:08;;;;;;;37.83;26.92;;;13.90;91.50;;;;;;5081878;28;20029;-52
2021/06/10 04:48:34;;;;;;;38.30;29.13;;;14.00;91.40;;;;;;5070410;28;20045;-54
2021/06/10 04:51:00;;;;;;;36.72;29.23;;;14.10;91.30;;;;;;5072840;28;20033;-53
2021/06/10 04:53:43;;;;;;;38.25;28.40;;;14.10;91.30;;;;;;5078655;28;20111;-52
2021/06/10 04:56:09;;;;;;;37.67;28.55;;;14.20;91.20;;;;;;5076559;28;20535;-54
2021/06/10 04:58:38;;;;;;;37.13;29.13;;;14.30;91.20;;;;;;5081244;28;20033;-52
2021/06/10 05:01:04;;;;;;;37.30;28.75;;;14.40;91.40;;;;;;5072927;28;20040;-53
2021/06/10 05:03:34;;;;;;;37.55;29.88;;;14.60;91.60;;;;;;5072580;28;20039;-53
2021/06/10 05:06:02;;;;;;;36.72;29.55;;;14.80;91.60;;;;;;5062008;28;20402;-53
2021/06/10 05:08:32;;;;;;;40.88;29.80;;;15.00;91.60;;;;;;5065718;28;20471;-53
2021/06/10 05:11:00;;;;;;;40.72;30.95;;;15.40;91.40;;;;;;5072927;28;20048;-50
2021/06/10 05:13:27;;;;;;;37.17;30.13;;;15.70;91.00;;;;;;5072947;28;20506;-53
2021/06/10 05:15:56;;;;;;;38.67;30.05;;;16.00;90.40;;;;;;5071643;28;20040;-51
2021/06/10 05:18:22;;;;;;;38.35;30.05;;;16.30;90.10;;;;;;5072763;28;20093;-53
2021/06/10 05:20:49;;;;;;;39.85;30.20;;;16.60;89.70;;;;;;5072676;28;20040;-53
2021/06/10 05:23:15;;;;;;;35.38;28.23;;;16.80;88.60;;;;;;5073097;28;20043;-53
2021/06/10 05:25:41;;;;;;;35.28;28.38;;;17.10;88.10;;;;;;5072755;28;20178;-52
2021/06/10 05:28:06;;;;;;;35.95;27.90;;;17.30;86.80;;;;;;5073052;28;20068;-52
2021/06/10 05:30:32;;;;;;;37.15;28.90;;;17.50;86.20;;;;;;5072377;28;20496;-53
2021/06/10 05:32:59;;;;;;;33.25;28.15;;;17.80;85.40;;;;;;5070707;28;20040;-52
2021/06/10 05:35:25;;;;;;;41.10;29.13;;;17.90;84.60;;;;;;5071528;28;20405;-50
2021/06/10 05:37:51;;;;;;;33.65;28.17;;;18.10;83.90;;;;;;5073330;28;20048;-53
2021/06/10 05:40:18;;;;;;;32.90;26.60;;;18.30;83.40;;;;;;5068539;28;20041;-53
2021/06/10 05:42:45;;;;;;;34.03;26.98;;;18.50;83.10;;;;;;5035869;28;20052;-51
2021/06/10 05:45:12;;;;;;;33.97;25.98;;;18.60;82.30;;;;;;5081413;28;20048;-51
2021/06/10 05:47:41;;;;;;;28.88;23.98;;;18.70;81.30;;;;;;5075226;28;20066;-50
2021/06/10 05:50:07;;;;;;;27.73;22.88;;;18.80;80.70;;;;;;5080754;28;20040;-53
2021/06/10 05:52:34;;;;;;;27.77;21.58;;;19.10;79.70;;;;;;5076158;28;20135;-54
2021/06/10 05:54:59;;;;;;;28.45;21.23;;;19.60;76.70;;;;;;5057161;28;20489;-52
2021/06/10 05:57:27;;;;;;;25.40;21.15;;;19.80;76.10;;;;;;5083964;28;20036;-55
2021/06/10 05:59:52;;;;;;;22.70;19.67;;;19.90;75.30;;;;;;5066830;28;20051;-54
2021/06/10 06:02:25;;;;;;;24.83;20.25;;;20.10;74.30;;;;;;5070103;28;20097;-53
2021/06/10 06:04:52;;;;;;;21.70;19.08;;;19.90;74.40;;;;;;5072502;28;20055;-51
2021/06/10 06:07:18;;;;;;;24.80;19.33;;;19.70;74.30;;;;;;5072262;28;20420;-51
2021/06/10 06:09:52;;;;;;;25.08;19.13;;;19.50;75.00;;;;;;5071150;28;20051;-53
2021/06/10 06:12:18;;;;;;;20.92;18.02;;;19.30;75.20;;;;;;5059088;28;20056;-53
2021/06/10 06:14:45;;;;;;;25.55;18.55;;;19.10;76.10;;;;;;5078139;28;20067;-53
2021/06/10 06:17:15;;;;;;;21.55;17.67;;;19.00;76.70;;;;;;5051439;28;20105;-54
2021/06/10 06:19:41;;;;;;;20.25;16.60;;;18.90;77.00;;;;;;5071759;28;20483;-54
2021/06/10 06:22:08;;;;;;;21.85;16.65;;;18.80;77.70;;;;;;5072304;28;20040;-56
2021/06/10 06:24:37;;;;;;;18.27;16.23;;;18.80;78.10;;;;;;5070927;28;20037;-56
2021/06/10 06:27:10;;;;;;;18.00;15.80;;;18.70;78.40;;;;;;5070712;28;20575;-53
2021/06/10 06:29:36;;;;;;;19.80;15.65;;;18.70;78.00;;;;;;5071270;28;20170;-55
2021/06/10 06:32:03;;;;;;;16.83;15.02;;;18.70;78.00;;;;;;5071796;28;20476;-52
2021/06/10 06:34:35;;;;;;;18.10;14.63;;;18.70;78.00;;;;;;5071075;28;20187;-56
2021/06/10 06:37:01;;;;;;;18.88;15.15;;;18.70;77.00;;;;;;5072171;28;20050;-55
2021/06/10 06:39:28;;;;;;;19.40;14.68;;;18.60;77.20;;;;;;5071319;28;20044;-55
2021/06/10 06:41:54;;;;;;;18.33;13.95;;;18.60;77.30;;;;;;5053773;28;20108;-55
2021/06/10 06:44:20;;;;;;;17.88;13.52;;;18.60;77.30;;;;;;5072368;28;20048;-55
2021/06/10 06:46:49;;;;;;;16.85;14.70;;;18.60;77.30;;;;;;5076039;28;20055;-56
2021/06/10 06:49:14;;;;;;;16.45;13.55;;;18.70;77.00;;;;;;5075980;28;20044;-56
2021/06/10 06:51:41;;;;;;;16.67;13.15;;;18.70;77.40;;;;;;5081521;28;20493;-54
2021/06/10 06:54:07;;;;;;;15.82;12.63;;;18.70;77.40;;;;;;5071210;28;20123;-54
2021/06/10 06:56:33;;;;;;;15.68;12.88;;;18.70;76.60;;;;;;5070802;28;20068;-56
2021/06/10 06:59:00;;;;;;;14.88;12.57;;;18.80;76.50;;;;;;5076443;28;20048;-56
2021/06/10 07:01:26;;;;;;;14.23;12.70;;;18.90;76.60;;;;;;5071736;28;20040;-56
2021/06/10 07:03:53;;;;;;;14.95;10.77;;;19.00;76.40;;;;;;5070074;28;20040;-55
2021/06/10 07:06:18;;;;;;;14.98;11.65;;;19.20;75.20;;;;;;5065014;28;20076;-56
2021/06/10 07:08:52;;;;;;;14.18;11.73;;;19.30;74.50;;;;;;5064542;28;20513;-56
2021/06/10 07:11:19;;;;;;;13.30;11.10;;;19.50;73.50;;;;;;5055543;28;20055;-56
2021/06/10 07:13:45;;;;;;;14.20;10.75;;;19.70;73.60;;;;;;5072586;28;20755;-56
2021/06/10 07:16:12;;;;;;;11.90;10.05;;;19.90;72.00;;;;;;5069453;28;20043;-56
2021/06/10 07:18:41;;;;;;;12.70;10.27;;;20.10;71.70;;;;;;5071209;28;20048;-54
2021/06/10 07:21:07;;;;;;;13.95;10.48;;;20.20;71.10;;;;;;5061387;28;20048;-54
2021/06/10 07:23:34;;;;;;;14.45;11.30;;;20.40;71.20;;;;;;5061714;28;20044;-54
2021/06/10 07:26:00;;;;;;;16.13;10.57;;;20.60;70.60;;;;;;5065260;28;20555;-55
2021/06/10 07:28:26;;;;;;;14.15;10.98;;;20.70;70.30;;;;;;5070998;28;20056;-54
2021/06/10 07:30:52;;;;;;;14.65;10.35;;;20.90;69.30;;;;;;5070947;28;20036;-55
2021/06/10 07:33:20;;;;;;;10.98;9.45;;;21.00;68.40;;;;;;5070750;28;20136;-54
2021/06/10 07:35:48;;;;;;;11.93;10.30;;;21.10;69.40;;;;;;5070329;28;20048;-53
2021/06/10 07:38:18;;;;;;;11.80;9.98;;;21.20;68.10;;;;;;5067004;28;20036;-54
2021/06/10 07:40:49;;;;;;;23.30;9.63;;;21.30;68.20;;;;;;5063085;28;20414;-53
2021/06/10 07:43:15;;;;;;;11.68;9.40;;;21.40;66.90;;;;;;5063355;28;20115;-55
2021/06/10 07:45:42;;;;;;;9.88;8.63;;;21.50;66.10;;;;;;5066754;28;20492;-57
2021/06/10 07:48:08;;;;;;;11.35;8.90;;;21.60;66.20;;;;;;5073141;28;20060;-58
2021/06/10 07:50:34;;;;;;;11.45;9.52;;;21.70;66.80;;;;;;5074499;28;20108;-56
2021/06/10 07:53:00;;;;;;;11.02;9.52;;;21.80;65.00;;;;;;5066232;28;20055;-55
2021/06/10 07:55:27;;;;;;;13.27;8.95;;;21.80;64.90;;;;;;5071053;28;20047;-55
2021/06/10 07:58:01;;;;;;;10.95;9.77;;;21.90;65.00;;;;;;5074144;28;20037;-56
2021/06/10 08:00:26;;;;;;;11.77;10.50;;;22.00;65.90;;;;;;5071232;28;20041;-55
2021/06/10 08:02:57;;;;;;;11.80;10.25;;;22.10;65.70;;;;;;5075509;28;20043;-57
2021/06/10 08:05:23;;;;;;;13.10;10.90;;;22.10;65.80;;;;;;5074302;28;20087;-56
2021/06/10 08:07:49;;;;;;;12.68;10.95;;;22.20;66.10;;;;;;5076669;28;20048;-55
2021/06/10 08:10:15;;;;;;;12.18;10.48;;;22.30;65.60;;;;;;5076974;28;20516;-56
2021/06/10 08:12:41;;;;;;;13.20;11.40;;;22.30;64.80;;;;;;5081431;28;20036;-55
2021/06/10 08:15:08;;;;;;;11.80;10.60;;;22.40;64.90;;;;;;5054571;28;20077;-55
2021/06/10 08:17:35;;;;;;;12.82;10.25;;;22.50;65.10;;;;;;5050065;28;20072;-55
2021/06/10 08:20:11;;;;;;;12.65;9.98;;;22.50;64.90;;;;;;5074083;28;20270;-54
2021/06/10 08:22:36;;;;;;;10.70;9.50;;;22.60;63.70;;;;;;5074481;28;20346;-55
2021/06/10 08:25:05;;;;;;;11.60;10.02;;;22.60;64.10;;;;;;5061762;28;20055;-56
2021/06/10 08:27:31;;;;;;;11.75;10.45;;;22.60;64.30;;;;;;5050444;28;20048;-57
2021/06/10 08:29:57;;;;;;;9.98;8.98;;;22.70;63.60;;;;;;5066738;28;20048;-55
2021/06/10 08:32:22;;;;;;;11.98;10.13;;;22.80;64.20;;;;;;5057438;28;20049;-56
2021/06/10 08:34:48;;;;;;;12.73;9.15;;;22.90;63.60;;;;;;5072947;28;20044;-56
2021/06/10 08:37:14;;;;;;;12.43;8.82;;;22.90;63.50;;;;;;5072569;28;20369;-54
2021/06/10 08:39:39;;;;;;;12.90;9.52;;;23.00;63.30;;;;;;5070307;28;20052;-58
2021/06/10 08:42:08;;;;;;;10.15;8.70;;;23.00;63.40;;;;;;5063679;28;20044;-58
2021/06/10 08:44:35;;;;;;;12.02;9.70;;;23.00;62.10;;;;;;5085056;28;20423;-57
2021/06/10 08:47:07;;;;;;;12.30;9.85;;;23.00;61.90;;;;;;5066809;28;20515;-58
2021/06/10 08:49:35;;;;;;;10.95;9.15;;;23.00;61.60;;;;;;5069259;28;20111;-58
2021/06/10 08:52:06;;;;;;;12.13;9.63;;;23.00;61.20;;;;;;5073267;28;20039;-58
2021/06/10 08:54:32;;;;;;;13.15;9.30;;;23.10;61.60;;;;;;5059610;28;20041;-58
2021/06/10 08:56:58;;;;;;;12.50;9.48;;;23.10;62.30;;;;;;5065607;28;20095;-58
2021/06/10 08:59:24;;;;;;;11.57;10.25;;;23.10;61.50;;;;;;5064888;28;20485;-58
2021/06/10 09:01:50;;;;;;;12.23;9.35;;;23.10;60.80;;;;;;5059212;28;20033;-57
2021/06/10 09:04:15;;;;;;;11.57;9.90;;;23.20;60.70;;;;;;5070604;28;20048;-58
2021/06/10 09:06:52;;;;;;;13.25;8.90;;;23.20;60.20;;;;;;5083078;28;20047;-56
2021/06/10 09:09:34;;;;;;;11.25;9.55;;;23.20;60.00;;;;;;5074839;28;20070;-55
2021/06/10 09:12:06;;;;;;;13.52;10.07;;;23.30;59.70;;;;;;5062040;28;20096;-52
2021/06/10 09:14:52;;;;;;;12.80;8.95;;;23.30;59.10;;;;;;5068956;28;20048;-55
2021/06/10 09:17:34;;;;;;;11.50;9.38;;;23.40;59.00;;;;;;5072583;28;20060;-54
2021/06/10 09:20:20;;;;;;;11.25;8.68;;;23.40;59.70;;;;;;5073582;28;20043;-55
2021/06/10 09:22:52;;;;;;;11.20;7.93;;;23.40;60.60;;;;;;5062925;28;20492;-53
2021/06/10 09:25:20;;;;;;;8.38;7.40;;;23.50;59.70;;;;;;5073784;28;20040;-56
2021/06/10 09:27:58;;;;;;;9.15;7.68;;;23.50;58.70;;;;;;5074205;28;20083;-54
2021/06/10 09:30:30;;;;;;;9.77;7.50;;;23.50;59.20;;;;;;5072880;28;20055;-57
2021/06/10 09:32:56;;;;;;;9.48;6.80;;;23.50;58.70;;;;;;5073942;28;20097;-55
2021/06/10 09:35:38;;;;;;;8.60;6.90;;;23.60;57.50;;;;;;5072896;28;20055;-56
2021/06/10 09:38:24;;;;;;;9.88;7.38;;;23.80;58.30;;;;;;5058970;28;20048;-55
2021/06/10 09:41:01;;;;;;;8.48;7.35;;;23.90;58.40;;;;;;5073212;28;20052;-57
2021/06/10 09:43:42;;;;;;;8.60;6.50;;;24.00;57.30;;;;;;5071563;28;20043;-53
2021/06/10 09:46:12;;;;;;;11.15;6.30;;;24.10;57.50;;;;;;5067227;28;20484;-54
2021/06/10 09:48:38;;;;;;;12.25;7.20;;;24.10;56.70;;;;;;5076159;28;20127;-55
2021/06/10 09:51:06;;;;;;;10.88;6.70;;;24.20;56.10;;;;;;5063880;28;20053;-54
2021/06/10 09:53:33;;;;;;;8.93;6.63;;;24.20;56.00;;;;;;5049000;28;20447;-54
2021/06/10 09:56:07;;;;;;;7.38;6.10;;;24.30;55.90;;;;;;5062920;28;20049;-53
2021/06/10 09:58:39;;;;;;;11.77;7.00;;;24.30;55.10;;;;;;5067571;28;20477;-56
2021/06/10 10:01:20;;;;;;;11.02;6.68;;;24.30;54.20;;;;;;5076728;28;20036;-52
2021/06/10 10:03:50;;;;;;;13.85;8.73;;;24.40;54.70;;;;;;5058502;28;20064;-54
2021/06/10 10:06:27;;;;;;;17.33;7.75;;;24.40;54.00;;;;;;5071079;28;20052;-55
2021/06/10 10:09:04;;;;;;;13.77;7.57;;;24.50;54.20;;;;;;5059294;28;20046;-54
2021/06/10 10:11:33;;;;;;;7.50;5.90;;;24.50;54.10;;;;;;5074391;28;20123;-54
2021/06/10 10:14:01;;;;;;;14.65;8.57;;;24.60;54.70;;;;;;5069161;28;20128;-56
2021/06/10 10:16:36;;;;;;;12.75;7.10;;;24.50;54.30;;;;;;5072866;28;20048;-57
2021/06/10 10:19:03;;;;;;;7.20;6.07;;;24.60;54.20;;;;;;5071925;28;20044;-56
2021/06/10 10:21:33;;;;;;;7.72;4.80;;;24.60;53.40;;;;;;5071408;28;20036;-56
2021/06/10 10:24:01;;;;;;;9.23;5.22;;;24.70;52.50;;;;;;5070700;28;20360;-56
2021/06/10 10:26:34;;;;;;;6.32;4.57;;;24.70;52.20;;;;;;5072923;28;20048;-57
2021/06/10 10:29:01;;;;;;;6.50;4.28;;;24.70;51.40;;;;;;5068791;28;20492;-55
2021/06/10 10:31:29;;;;;;;6.28;4.10;;;24.60;52.00;;;;;;5072164;28;20040;-56
2021/06/10 10:33:55;;;;;;;7.55;4.60;;;24.70;52.50;;;;;;5072063;28;20271;-58
2021/06/10 10:36:30;;;;;;;7.95;5.55;;;24.60;52.80;;;;;;5070321;28;20583;-55
2021/06/10 10:39:05;;;;;;;8.00;6.03;;;24.70;52.40;;;;;;5071564;28;20440;-58
2021/06/10 10:41:32;;;;;;;7.95;5.80;;;24.70;52.40;;;;;;5072316;28;20045;-56
2021/06/10 10:44:18;;;;;;;7.00;5.35;;;24.70;52.30;;;;;;5072160;28;20075;-57
2021/06/10 10:47:03;;;;;;;6.75;4.38;;;24.80;51.70;;;;;;5053234;28;20123;-55
2021/06/10 10:49:38;;;;;;;6.95;5.07;;;24.80;52.10;;;;;;5068169;28;20043;-57
2021/06/10 10:52:36;;;;;;;6.25;5.13;;;24.80;51.40;;;;;;5090168;28;20495;-56
2021/06/10 10:55:26;;;;;;;8.18;5.50;;;24.90;52.60;;;;;;5075164;28;20384;-54
2021/06/10 10:58:23;;;;;;;7.03;4.78;;;25.00;52.50;;;;;;5090377;28;20040;-55
2021/06/10 11:01:00;;;;;;;5.80;4.28;;;25.00;51.80;;;;;;5076087;28;20040;-54
2021/06/10 11:03:42;;;;;;;5.85;4.00;;;25.20;52.70;;;;;;5065671;28;20048;-55
2021/06/10 11:06:26;;;;;;;7.65;4.50;;;25.20;51.40;;;;;;5062165;28;20045;-55
2021/06/10 11:09:24;;;;;;;7.00;4.70;;;25.30;52.10;;;;;;5057613;28;20472;-54
2021/06/10 11:11:58;;;;;;;7.43;5.20;;;25.40;50.50;;;;;;5054814;28;20067;-56
2021/06/10 11:14:52;;;;;;;8.50;4.75;;;25.50;50.60;;;;;;5071934;28;20071;-57
2021/06/10 11:17:21;;;;;;;9.25;5.22;;;25.50;49.30;;;;;;5060714;28;20029;-54
2021/06/10 11:19:56;;;;;;;7.30;4.90;;;25.60;50.80;;;;;;5065660;28;20078;-53
2021/06/10 11:22:42;;;;;;;6.78;5.40;;;25.60;51.20;;;;;;5071246;28;20040;-51
2021/06/10 11:25:41;;;;;;;7.13;5.55;;;25.60;51.20;;;;;;5070453;28;20440;-53
2021/06/10 11:28:08;;;;;;;6.07;5.00;;;25.70;51.10;;;;;;5048416;28;20662;-54
2021/06/10 11:30:35;;;;;;;6.30;4.28;;;25.80;51.20;;;;;;5071707;28;20052;-55
2021/06/10 11:33:03;;;;;;;9.68;5.40;;;25.80;50.20;;;;;;5073636;28;20515;-55
2021/06/10 11:35:40;;;;;;;9.00;4.80;;;25.80;50.00;;;;;;5073939;28;20052;-55
2021/06/10 11:38:13;;;;;;;6.30;4.70;;;25.70;49.40;;;;;;5074350;28;20409;-53
2021/06/10 11:40:45;;;;;;;6.82;4.30;;;25.80;48.50;;;;;;5070943;28;20045;-54
2021/06/10 11:43:12;;;;;;;15.68;4.50;;;25.80;49.50;;;;;;5066893;28;20475;-55
2021/06/10 11:45:40;;;;;;;9.10;3.80;;;25.90;50.10;;;;;;5050795;28;20435;-55
2021/06/10 11:48:06;;;;;;;8.90;5.00;;;26.00;50.10;;;;;;5070455;28;20037;-53
2021/06/10 11:50:47;;;;;;;6.57;4.10;;;26.10;49.70;;;;;;5071588;28;20505;-50
2021/06/10 11:53:19;;;;;;;4.80;3.05;;;26.10;49.40;;;;;;5063881;28;20049;-53
2021/06/10 11:55:48;;;;;;;7.30;3.30;;;26.10;49.10;;;;;;5063803;28;20052;-55
2021/06/10 11:58:16;;;;;;;6.55;3.80;;;26.20;48.70;;;;;;5065730;28;20489;-51
2021/06/10 12:00:46;;;;;;;8.68;4.50;;;26.20;47.80;;;;;;5058342;28;20443;-54
2021/06/10 12:03:17;;;;;;;7.05;5.20;;;26.20;47.90;;;;;;5058983;28;20043;-52
2021/06/10 12:05:54;;;;;;;7.03;4.70;;;26.30;47.70;;;;;;5063642;28;20102;-52
2021/06/10 12:08:22;;;;;;;6.15;4.32;;;26.40;48.70;;;;;;5066497;28;20048;-53
2021/06/10 12:10:52;;;;;;;5.60;4.47;;;26.40;49.90;;;;;;5061962;28;20131;-52
2021/06/10 12:13:33;;;;;;;5.97;4.78;;;26.20;49.00;;;;;;5066067;28;20106;-50
2021/06/10 12:16:08;;;;;;;8.18;4.10;;;26.00;49.10;;;;;;5052084;28;20121;-52
2021/06/10 12:18:39;;;;;;;7.38;3.33;;;25.90;49.80;;;;;;5067394;28;20041;-55
2021/06/10 12:21:07;;;;;;;4.38;3.40;;;26.00;50.40;;;;;;5057227;28;20088;-50
2021/06/10 12:23:40;;;;;;;5.35;3.40;;;26.10;49.20;;;;;;5065590;28;20132;-54
2021/06/10 12:26:16;;;;;;;5.25;3.35;;;26.20;48.60;;;;;;5064832;28;20067;-54
2021/06/10 12:28:47;;;;;;;4.85;2.97;;;26.30;48.70;;;;;;5078222;28;20389;-50
2021/06/10 12:31:23;;;;;;;5.63;3.70;;;26.40;47.60;;;;;;5065477;28;20095;-53
2021/06/10 12:33:57;;;;;;;6.13;4.20;;;26.20;46.90;;;;;;5065711;28;20372;-52
2021/06/10 12:36:24;;;;;;;4.63;3.58;;;26.10;46.60;;;;;;5068421;28;20045;-50
2021/06/10 12:39:05;;;;;;;4.85;3.80;;;26.10;47.90;;;;;;5066935;28;20445;-53
2021/06/10 12:41:40;;;;;;;9.90;3.67;;;26.10;49.80;;;;;;5079382;28;20512;-53
2021/06/10 12:44:14;;;;;;;5.95;3.10;;;26.10;49.50;;;;;;5080924;28;20032;-54
2021/06/10 12:46:46;;;;;;;4.88;3.20;;;26.20;49.70;;;;;;5070427;28;20487;-55